createdAt,value
2023-04-20T00:01:13.520Z,8.80
2023-04-20T00:03:41.487Z,9.02
2023-04-20T00:06:09.174Z,8.52
2023-04-20T00:08:36.170Z,9.18
2023-04-20T00:11:02.962Z,8.25
2023-04-20T00:13:29.826Z,9.27
2023-04-20T00:15:56.591Z,9.55
2023-04-20T00:18:23.504Z,8.98
2023-04-20T00:20:50.846Z,8.27
2023-04-20T00:23:17.833Z,8.02
2023-04-20T00:25:44.922Z,8.82
2023-04-20T00:28:12.039Z,7.80
2023-04-20T00:30:40.948Z,8.05
2023-04-20T00:33:07.968Z,8.00
2023-04-20T00:35:34.898Z,8.20
2023-04-20T00:38:01.966Z,8.52
2023-04-20T00:40:30.843Z,8.35
2023-04-20T00:42:57.647Z,9.25
2023-04-20T00:45:24.523Z,8.90
2023-04-20T00:47:51.725Z,8.30
2023-04-20T00:50:19.003Z,8.48
2023-04-20T00:52:46.925Z,8.93
2023-04-20T00:55:13.958Z,8.13
2023-04-20T00:57:41.659Z,9.23
2023-04-20T01:00:10.647Z,9.07
2023-04-20T01:02:37.956Z,9.07
2023-04-20T01:05:08.540Z,9.50
2023-04-20T01:07:36.726Z,9.07
2023-04-20T01:10:04.361Z,9.25
2023-04-20T01:12:31.366Z,9.25
2023-04-20T01:14:58.655Z,9.60
2023-04-20T01:17:25.671Z,8.65
2023-04-20T01:19:52.598Z,8.80
2023-04-20T01:22:21.472Z,8.50
2023-04-20T01:24:48.932Z,9.23
2023-04-20T01:27:17.069Z,8.75
2023-04-20T01:29:44.179Z,7.80
2023-04-20T01:32:11.900Z,8.40
2023-04-20T01:34:39.128Z,9.07
2023-04-20T01:37:08.278Z,7.90
2023-04-20T01:39:39.482Z,7.93
2023-04-20T01:42:07.146Z,8.77
2023-04-20T01:44:33.981Z,8.05
2023-04-20T01:47:01.117Z,8.10
2023-04-20T01:49:28.094Z,7.85
2023-04-20T01:51:55.788Z,7.70
2023-04-20T01:54:22.851Z,7.50
2023-04-20T01:56:49.650Z,7.53
2023-04-20T01:59:16.888Z,7.47
2023-04-20T02:01:43.946Z,7.53
2023-04-20T02:04:10.896Z,7.50
2023-04-20T02:06:40.870Z,7.53
2023-04-20T02:09:09.523Z,6.93
2023-04-20T02:11:36.554Z,7.25
2023-04-20T02:14:06.152Z,7.13
2023-04-20T02:16:33.155Z,7.32
2023-04-20T02:19:00.233Z,7.75
2023-04-20T02:21:28.008Z,7.50
2023-04-20T02:23:55.101Z,7.65
2023-04-20T02:26:22.047Z,7.65
2023-04-20T02:28:49.034Z,6.93
2023-04-20T02:31:15.839Z,7.65
2023-04-20T02:33:45.075Z,7.03
2023-04-20T02:36:12.137Z,7.20
2023-04-20T02:38:40.496Z,8.10
2023-04-20T02:41:07.878Z,7.10
2023-04-20T02:43:36.327Z,7.47
2023-04-20T02:46:04.789Z,7.50
2023-04-20T02:48:31.776Z,6.93
2023-04-20T02:50:59.460Z,7.32
2023-04-20T02:53:30.933Z,6.90
2023-04-20T02:56:19.461Z,7.10
2023-04-20T02:58:52.260Z,6.78
2023-04-20T03:01:30.365Z,6.65
2023-04-20T03:04:23.591Z,6.90
2023-04-20T03:07:10.878Z,7.10
2023-04-20T03:09:39.464Z,7.65
2023-04-20T03:12:18.684Z,7.32
2023-04-20T03:14:49.012Z,7.47
2023-04-20T03:17:18.617Z,7.40
2023-04-20T03:19:46.556Z,6.45
2023-04-20T03:22:13.485Z,7.60
2023-04-20T03:24:40.761Z,7.97
2023-04-20T03:27:30.733Z,7.13
2023-04-20T03:30:06.979Z,7.47
2023-04-20T03:32:33.833Z,7.00
2023-04-20T03:35:00.838Z,8.00
2023-04-20T03:37:28.145Z,7.97
2023-04-20T03:39:55.170Z,7.82
2023-04-20T03:42:22.066Z,7.53
2023-04-20T03:44:48.882Z,8.32
2023-04-20T03:47:15.877Z,7.50
2023-04-20T03:49:43.295Z,8.20
2023-04-20T03:52:12.829Z,8.18
2023-04-20T03:54:40.630Z,7.97
2023-04-20T03:57:07.846Z,8.48
2023-04-20T03:59:34.885Z,7.35
2023-04-20T04:02:05.920Z,7.85
2023-04-20T04:04:33.261Z,8.00
2023-04-20T04:07:00.922Z,18.38
2023-04-20T04:09:27.752Z,14.23
2023-04-20T04:11:54.888Z,10.52
2023-04-20T04:14:23.732Z,9.80
2023-04-20T04:16:50.611Z,9.02
2023-04-20T04:19:17.856Z,9.05
2023-04-20T04:21:44.899Z,8.38
2023-04-20T04:24:14.263Z,7.95
2023-04-20T04:27:05.168Z,8.15
2023-04-20T04:29:36.034Z,9.10
2023-04-20T04:32:05.959Z,8.65
2023-04-20T04:34:34.183Z,8.02
2023-04-20T04:37:01.893Z,8.13
2023-04-20T04:39:41.421Z,7.47
2023-04-20T04:42:18.858Z,8.40
2023-04-20T04:44:47.212Z,7.80
2023-04-20T04:47:22.006Z,8.18
2023-04-20T04:49:49.824Z,7.97
2023-04-20T04:52:16.622Z,8.15
2023-04-20T04:54:43.550Z,8.10
2023-04-20T04:57:10.318Z,8.27
2023-04-20T04:59:37.434Z,8.45
2023-04-20T05:02:04.899Z,7.80
2023-04-20T05:04:32.212Z,8.23
2023-04-20T05:06:59.123Z,8.30
2023-04-20T05:09:26.552Z,8.80
2023-04-20T05:11:53.395Z,8.75
2023-04-20T05:14:20.294Z,8.20
2023-04-20T05:16:47.296Z,8.65
2023-04-20T05:19:14.107Z,8.07
2023-04-20T05:21:40.976Z,8.13
2023-04-20T05:24:07.908Z,7.50
2023-04-20T05:26:34.665Z,8.80
2023-04-20T05:29:01.779Z,8.10
2023-04-20T05:31:29.190Z,7.80
2023-04-20T05:33:56.068Z,7.88
2023-04-20T05:36:22.850Z,8.10
2023-04-20T05:38:50.248Z,7.65
2023-04-20T05:41:17.387Z,7.78
2023-04-20T05:43:44.184Z,8.52
2023-04-20T05:46:11.031Z,8.32
2023-04-20T05:48:37.900Z,8.38
2023-04-20T05:51:04.958Z,7.75
2023-04-20T05:53:31.911Z,8.10
2023-04-20T05:55:58.738Z,8.02
2023-04-20T05:58:27.295Z,6.88
2023-04-20T06:00:54.634Z,7.75
2023-04-20T06:03:21.706Z,7.72
2023-04-20T06:05:48.761Z,8.10
2023-04-20T06:08:15.622Z,7.60
2023-04-20T06:10:42.578Z,7.20
2023-04-20T06:13:09.391Z,7.13
2023-04-20T06:15:36.732Z,7.82
2023-04-20T06:18:03.985Z,6.85
2023-04-20T06:20:30.878Z,7.28
2023-04-20T06:22:57.957Z,7.18
2023-04-20T06:25:25.484Z,7.63
2023-04-20T06:27:52.922Z,6.97
2023-04-20T06:30:20.266Z,6.75
2023-04-20T06:32:47.091Z,7.40
2023-04-20T06:35:14.095Z,7.20
2023-04-20T06:37:40.924Z,6.97
2023-04-20T06:40:08.838Z,6.88
2023-04-20T06:42:36.462Z,7.55
2023-04-20T06:45:05.765Z,8.05
2023-04-20T06:47:33.605Z,7.65
2023-04-20T06:50:02.305Z,8.00
2023-04-20T06:52:30.581Z,8.50
2023-04-20T06:54:59.277Z,8.20
2023-04-20T06:57:26.333Z,7.63
2023-04-20T06:59:53.468Z,7.43
2023-04-20T07:02:21.109Z,8.23
2023-04-20T07:04:48.042Z,8.07
2023-04-20T07:07:14.953Z,8.57
2023-04-20T07:09:42.088Z,8.43
2023-04-20T07:12:11.415Z,8.15
2023-04-20T07:14:38.408Z,8.32
2023-04-20T07:17:05.254Z,8.15
2023-04-20T07:19:32.710Z,7.78
2023-04-20T07:21:59.596Z,7.13
2023-04-20T07:24:26.337Z,7.35
2023-04-20T07:26:53.406Z,7.20
2023-04-20T07:29:20.699Z,7.80
2023-04-20T07:31:48.497Z,7.63
2023-04-20T07:34:15.628Z,7.15
2023-04-20T07:36:42.514Z,7.43
2023-04-20T07:39:09.416Z,8.07
2023-04-20T07:41:36.708Z,7.30
2023-04-20T07:44:03.693Z,7.22
2023-04-20T07:46:34.151Z,7.13
2023-04-20T07:49:01.121Z,8.27
2023-04-20T07:51:30.246Z,8.23
2023-04-20T07:53:57.268Z,7.47
2023-04-20T07:56:24.327Z,7.57
2023-04-20T07:58:51.156Z,7.95
2023-04-20T08:01:18.507Z,9.23
2023-04-20T08:03:45.663Z,8.70
2023-04-20T08:06:12.583Z,8.20
2023-04-20T08:08:39.490Z,9.00
2023-04-20T08:11:08.145Z,7.80
2023-04-20T08:13:37.528Z,8.60
2023-04-20T08:16:04.700Z,9.48
2023-04-20T08:18:31.639Z,9.07
2023-04-20T08:20:58.582Z,8.52
2023-04-20T08:23:28.098Z,7.85
2023-04-20T08:25:55.254Z,7.75
2023-04-20T08:30:56.614Z,8.30
2023-04-20T08:33:23.574Z,8.20
2023-04-20T08:35:51.632Z,8.88
2023-04-20T08:38:23.807Z,8.45
2023-04-20T08:40:58.530Z,9.13
2023-04-20T08:43:25.400Z,8.40
2023-04-20T08:45:55.665Z,7.97
2023-04-20T08:48:22.984Z,8.07
2023-04-20T08:50:50.397Z,8.55
2023-04-20T08:53:17.774Z,8.93
2023-04-20T08:55:44.880Z,9.27
2023-04-20T08:58:11.647Z,8.20
2023-04-20T09:00:47.292Z,7.78
2023-04-20T09:03:14.397Z,8.73
2023-04-20T09:05:41.493Z,9.02
2023-04-20T09:08:08.752Z,8.35
2023-04-20T09:10:42.189Z,7.82
2023-04-20T09:13:10.249Z,8.25
2023-04-20T09:15:38.161Z,8.23
2023-04-20T09:18:15.257Z,8.60
2023-04-20T09:20:42.072Z,8.15
2023-04-20T09:23:17.905Z,8.93
2023-04-20T09:25:46.953Z,9.43
2023-04-20T09:28:14.039Z,9.93
2023-04-20T09:30:43.700Z,8.52
2023-04-20T09:33:12.617Z,9.80
2023-04-20T09:35:41.939Z,8.88
2023-04-20T09:38:09.924Z,9.95
2023-04-20T09:40:36.876Z,10.20
2023-04-20T09:43:19.128Z,19.17
2023-04-20T09:45:46.122Z,9.30
2023-04-20T09:48:18.945Z,9.70
2023-04-20T09:50:49.656Z,8.18
2023-04-20T09:53:18.664Z,7.63
2023-04-20T09:55:50.098Z,7.65
2023-04-20T09:58:21.597Z,7.32
2023-04-20T10:00:49.117Z,7.30
2023-04-20T10:03:20.349Z,7.80
2023-04-20T10:05:47.504Z,7.45
2023-04-20T10:08:14.405Z,7.40
2023-04-20T10:10:49.690Z,7.60
2023-04-20T10:13:21.689Z,7.45
2023-04-20T10:15:48.951Z,7.95
2023-04-20T10:18:24.599Z,7.93
2023-04-20T10:21:03.698Z,8.30
2023-04-20T10:23:30.671Z,8.85
2023-04-20T10:26:01.853Z,7.78
2023-04-20T10:28:49.116Z,7.97
2023-04-20T10:31:17.000Z,7.75
2023-04-20T10:33:55.421Z,8.98
2023-04-20T10:36:27.742Z,7.60
2023-04-20T10:38:55.894Z,8.63
2023-04-20T10:41:22.944Z,8.90
2023-04-20T10:43:50.424Z,8.13
2023-04-20T10:46:19.248Z,8.32
2023-04-20T10:48:57.002Z,8.07
2023-04-20T10:51:24.992Z,7.95
2023-04-20T10:54:04.454Z,7.93
2023-04-20T10:56:38.335Z,12.43
2023-04-20T10:59:10.465Z,9.07
2023-04-20T11:01:41.326Z,9.18
2023-04-20T11:04:10.624Z,8.98
2023-04-20T11:06:42.797Z,8.93
2023-04-20T11:09:24.781Z,8.43
2023-04-20T11:12:02.064Z,8.93
2023-04-20T11:14:30.691Z,7.78
2023-04-20T11:16:57.669Z,7.95
2023-04-20T11:19:30.374Z,8.50
2023-04-20T11:21:57.793Z,9.10
2023-04-20T11:24:26.673Z,9.40
2023-04-20T11:26:54.586Z,9.32
2023-04-20T11:29:34.799Z,9.73
2023-04-20T11:32:04.906Z,8.90
2023-04-20T11:34:32.778Z,9.10
2023-04-20T11:37:06.752Z,10.65
2023-04-20T11:39:34.150Z,8.95
2023-04-20T11:42:02.103Z,9.88
2023-04-20T11:44:28.877Z,9.90
2023-04-20T11:46:59.978Z,10.10
2023-04-20T11:49:29.327Z,9.48
2023-04-20T11:51:56.218Z,9.93
2023-04-20T11:54:24.162Z,10.20
2023-04-20T11:56:51.772Z,10.10
2023-04-20T11:59:20.485Z,10.55
2023-04-20T12:01:48.112Z,9.65
2023-04-20T12:04:16.083Z,10.23
2023-04-20T12:06:43.981Z,11.68
2023-04-20T12:09:11.228Z,8.50
2023-04-20T12:11:38.584Z,8.73
2023-04-20T12:14:05.361Z,7.93
2023-04-20T12:16:32.350Z,9.10
2023-04-20T12:18:59.512Z,8.90
2023-04-20T12:21:27.362Z,9.57
2023-04-20T12:23:54.206Z,9.95
2023-04-20T12:26:22.560Z,10.65
2023-04-20T12:28:50.707Z,11.50
2023-04-20T12:31:17.673Z,11.18
2023-04-20T12:33:44.584Z,10.82
2023-04-20T12:36:11.414Z,10.27
2023-04-20T12:38:38.270Z,9.60
2023-04-20T12:41:05.245Z,10.18
2023-04-20T12:43:32.285Z,10.40
2023-04-20T12:45:59.467Z,9.98
2023-04-20T12:48:26.504Z,9.32
2023-04-20T12:50:53.299Z,9.10
2023-04-20T12:53:20.261Z,10.05
2023-04-20T12:55:47.433Z,9.00
2023-04-20T12:58:16.163Z,9.07
2023-04-20T13:00:43.364Z,11.20
2023-04-20T13:03:10.652Z,14.68
2023-04-20T13:05:37.729Z,17.05
2023-04-20T13:08:04.607Z,11.60
2023-04-20T13:10:31.461Z,9.57
2023-04-20T13:12:59.650Z,7.70
2023-04-20T13:15:38.017Z,8.43
2023-04-20T13:18:06.506Z,8.13
2023-04-20T13:20:33.380Z,8.88
2023-04-20T13:23:01.452Z,7.97
2023-04-20T13:25:32.788Z,7.80
2023-04-20T13:28:01.102Z,8.40
2023-04-20T13:30:28.360Z,8.43
2023-04-20T13:32:55.734Z,7.57
2023-04-20T13:35:23.012Z,8.27
2023-04-20T13:37:49.962Z,8.23
2023-04-20T13:40:16.788Z,8.73
2023-04-20T13:42:43.609Z,7.97
2023-04-20T13:45:10.780Z,9.23
2023-04-20T13:47:38.970Z,8.60
2023-04-20T13:50:07.252Z,8.55
2023-04-20T13:52:34.057Z,7.78
2023-04-20T13:55:00.852Z,8.32
2023-04-20T13:57:28.146Z,8.23
2023-04-20T13:59:55.044Z,7.70
2023-04-20T14:02:21.902Z,8.90
2023-04-20T14:04:48.899Z,8.18
2023-04-20T14:07:15.701Z,8.35
2023-04-20T14:09:44.255Z,8.13
2023-04-20T14:12:12.079Z,9.00
2023-04-20T14:14:39.082Z,8.55
2023-04-20T14:17:06.048Z,8.63
2023-04-20T14:19:33.030Z,9.93
2023-04-20T14:21:59.818Z,9.15
2023-04-20T14:24:26.583Z,9.32
2023-04-20T14:26:54.220Z,10.38
2023-04-20T14:29:21.137Z,9.93
2023-04-20T14:31:48.080Z,9.05
2023-04-20T14:34:15.030Z,9.95
2023-04-20T14:36:41.987Z,10.10
2023-04-20T14:39:08.747Z,10.43
2023-04-20T14:41:35.699Z,9.80
2023-04-20T14:44:02.658Z,9.25
2023-04-20T14:46:29.724Z,10.18
2023-04-20T14:48:56.619Z,9.25
2023-04-20T14:51:23.459Z,9.48
2023-04-20T14:53:50.750Z,10.38
2023-04-20T14:56:17.774Z,10.07
2023-04-20T14:58:44.663Z,9.57
2023-04-20T15:01:11.497Z,9.68
2023-04-20T15:03:38.874Z,9.23
2023-04-20T15:06:06.212Z,9.30
2023-04-20T15:08:33.730Z,9.13
2023-04-20T15:11:02.270Z,8.70
2023-04-20T15:13:29.040Z,9.55
2023-04-20T15:15:55.922Z,9.45
2023-04-20T15:18:22.785Z,8.98
2023-04-20T15:20:52.359Z,8.88
2023-04-20T15:23:19.856Z,9.40
2023-04-20T15:25:46.856Z,8.63
2023-04-20T15:28:14.420Z,9.57
2023-04-20T15:30:41.794Z,9.10
2023-04-20T15:33:08.780Z,10.25
2023-04-20T15:35:35.726Z,9.20
2023-04-20T15:38:03.426Z,8.50
2023-04-20T15:40:30.406Z,8.73
2023-04-20T15:43:00.520Z,9.30
2023-04-20T15:45:27.300Z,8.60
2023-04-20T15:47:55.972Z,8.48
2023-04-20T15:50:23.772Z,8.13
2023-04-20T15:52:52.845Z,8.77
2023-04-20T15:55:19.691Z,8.45
2023-04-20T15:57:46.467Z,10.07
2023-04-20T16:00:14.355Z,8.50
2023-04-20T16:02:41.465Z,8.23
2023-04-20T16:05:09.462Z,7.55
2023-04-20T16:07:36.354Z,8.43
2023-04-20T16:10:05.497Z,7.57
2023-04-20T16:12:32.488Z,9.27
2023-04-20T16:15:01.241Z,9.10
2023-04-20T16:17:28.243Z,9.85
2023-04-20T16:19:55.041Z,11.48
2023-04-20T16:22:22.047Z,10.00
2023-04-20T16:24:48.917Z,8.95
2023-04-20T16:27:16.308Z,10.43
2023-04-20T16:29:43.558Z,11.20
2023-04-20T16:32:11.906Z,15.10
2023-04-20T16:34:38.634Z,10.80
2023-04-20T16:37:08.457Z,12.63
2023-04-20T16:39:36.599Z,12.35
2023-04-20T16:42:04.060Z,13.85
2023-04-20T16:44:31.201Z,9.80
2023-04-20T16:46:58.155Z,9.43
2023-04-20T16:49:25.207Z,9.25
2023-04-20T16:51:52.465Z,9.85
2023-04-20T16:54:19.455Z,10.68
2023-04-20T16:56:46.660Z,8.73
2023-04-20T16:59:13.728Z,9.63
2023-04-20T17:01:41.054Z,10.77
2023-04-20T17:04:08.170Z,12.23
2023-04-20T17:06:35.418Z,10.85
2023-04-20T17:09:06.813Z,10.70
2023-04-20T17:11:38.105Z,10.07
2023-04-20T17:14:05.360Z,10.85
2023-04-20T17:16:32.219Z,10.00
2023-04-20T17:18:59.017Z,10.55
2023-04-20T17:21:28.970Z,9.70
2023-04-20T17:23:56.563Z,9.73
2023-04-20T17:26:27.028Z,11.10
2023-04-20T17:28:53.891Z,12.95
2023-04-20T17:31:20.807Z,11.15
2023-04-20T17:33:48.235Z,10.40
2023-04-20T17:36:15.225Z,10.68
2023-04-20T17:38:43.097Z,10.55
2023-04-20T17:41:10.045Z,11.05
2023-04-20T17:43:40.266Z,11.98
2023-04-20T17:46:07.992Z,10.55
2023-04-20T17:48:34.823Z,10.40
2023-04-20T17:51:01.695Z,11.15
2023-04-20T17:53:28.607Z,11.93
2023-04-20T17:55:55.689Z,10.13
2023-04-20T17:58:23.392Z,11.02
2023-04-20T18:00:51.175Z,11.35
2023-04-20T18:03:19.906Z,11.63
2023-04-20T18:05:46.981Z,12.68
2023-04-20T18:08:15.922Z,13.57
2023-04-20T18:10:43.312Z,14.55
2023-04-20T18:13:10.259Z,14.82
2023-04-20T18:15:37.085Z,11.15
2023-04-20T18:18:04.016Z,11.57
2023-04-20T18:20:32.375Z,10.05
2023-04-20T18:22:59.513Z,11.30
2023-04-20T18:25:27.036Z,11.45
2023-04-20T18:27:53.928Z,12.05
2023-04-20T18:30:21.297Z,12.32
2023-04-20T18:32:48.170Z,11.93
2023-04-20T18:35:15.643Z,12.00
2023-04-20T18:37:42.541Z,11.77
2023-04-20T18:40:09.797Z,14.20
2023-04-20T18:42:36.634Z,14.23
2023-04-20T18:45:03.850Z,16.77
2023-04-20T18:47:31.002Z,18.73
2023-04-20T18:49:57.864Z,20.60
2023-04-20T18:52:24.781Z,18.48
2023-04-20T18:54:51.864Z,15.43
2023-04-20T18:57:21.564Z,16.98
2023-04-20T18:59:48.526Z,17.42
2023-04-20T19:02:15.542Z,19.55
2023-04-20T19:04:43.796Z,20.40
2023-04-20T19:07:10.763Z,21.25
2023-04-20T19:09:38.042Z,22.05
2023-04-20T19:12:05.666Z,21.13
2023-04-20T19:14:32.514Z,19.60
2023-04-20T19:17:02.033Z,20.98
2023-04-20T19:19:29.130Z,21.83
2023-04-20T19:21:57.491Z,27.63
2023-04-20T19:24:24.452Z,27.30
2023-04-20T19:26:51.733Z,25.77
2023-04-20T19:29:19.057Z,25.75
2023-04-20T19:31:46.025Z,26.80
2023-04-20T19:34:13.321Z,31.10
2023-04-20T19:36:41.769Z,31.95
2023-04-20T19:39:09.614Z,31.95
2023-04-20T19:41:36.700Z,28.95
2023-04-20T19:44:06.978Z,30.33
2023-04-20T19:46:34.069Z,30.90
2023-04-20T19:49:01.330Z,31.90
2023-04-20T19:51:28.484Z,29.90
2023-04-20T19:53:58.673Z,30.60
2023-04-20T19:56:26.551Z,33.95
2023-04-20T19:58:53.393Z,27.98
2023-04-20T20:01:20.443Z,26.42
2023-04-20T20:03:47.378Z,27.15
2023-04-20T20:06:14.447Z,28.58
2023-04-20T20:08:41.244Z,25.55
2023-04-20T20:11:08.148Z,27.00
2023-04-20T20:13:35.156Z,27.75
2023-04-20T20:16:02.871Z,28.45
2023-04-20T20:18:31.049Z,29.00
2023-04-20T20:20:57.950Z,28.30
2023-04-20T20:23:24.706Z,26.23
2023-04-20T20:25:52.361Z,26.10
2023-04-20T20:28:19.233Z,26.52
2023-04-20T20:30:46.080Z,27.25
2023-04-20T20:33:13.299Z,27.80
2023-04-20T20:35:41.367Z,28.27
2023-04-20T20:38:08.880Z,26.08
2023-04-20T20:40:35.971Z,23.75
2023-04-20T20:43:03.905Z,22.48
2023-04-20T20:45:31.866Z,20.92
2023-04-20T20:47:59.230Z,23.95
2023-04-20T20:50:27.849Z,24.00
2023-04-20T20:52:55.340Z,20.58
2023-04-20T20:55:22.418Z,19.33
2023-04-20T20:57:49.338Z,20.52
2023-04-20T21:00:16.436Z,21.70
2023-04-20T21:02:43.607Z,20.27
2023-04-20T21:05:10.959Z,19.27
2023-04-20T21:07:39.126Z,21.73
2023-04-20T21:10:06.568Z,18.65
2023-04-20T21:12:33.370Z,22.23
2023-04-20T21:15:00.382Z,21.33
2023-04-20T21:17:27.225Z,22.02
2023-04-20T21:19:54.197Z,19.90
2023-04-20T21:22:22.784Z,21.77
2023-04-20T21:24:49.635Z,21.10
2023-04-20T21:27:16.403Z,19.75
2023-04-20T21:29:43.187Z,21.50
2023-04-20T21:32:10.323Z,21.23
2023-04-20T21:34:37.137Z,21.83
2023-04-20T21:37:05.498Z,20.27
2023-04-20T21:39:32.532Z,19.83
2023-04-20T21:41:59.892Z,17.80
2023-04-20T21:44:27.277Z,16.77
2023-04-20T21:46:54.304Z,18.45
2023-04-20T21:49:21.409Z,18.25
2023-04-20T21:51:48.711Z,21.65
2023-04-20T21:54:15.948Z,21.73
2023-04-20T21:56:42.830Z,19.27
2023-04-20T21:59:09.611Z,19.05
2023-04-20T22:01:36.534Z,19.30
2023-04-20T22:04:04.612Z,20.05
2023-04-20T22:06:32.650Z,18.92
2023-04-20T22:08:59.483Z,21.50
2023-04-20T22:11:26.288Z,22.42
2023-04-20T22:13:53.087Z,22.48
2023-04-20T22:16:21.827Z,22.38
2023-04-20T22:18:49.254Z,20.63
2023-04-20T22:21:16.199Z,23.55
2023-04-20T22:23:43.188Z,21.30
2023-04-20T22:26:10.156Z,21.70
2023-04-20T22:28:37.088Z,24.95
2023-04-20T22:31:04.129Z,25.45
2023-04-20T22:33:31.041Z,26.73
2023-04-20T22:35:57.839Z,27.58
2023-04-20T22:38:24.769Z,25.90
2023-04-20T22:40:51.550Z,26.92
2023-04-20T22:43:18.365Z,26.95
2023-04-20T22:45:45.147Z,28.08
2023-04-20T22:48:12.519Z,28.40
2023-04-20T22:50:40.543Z,26.05
2023-04-20T22:53:07.361Z,25.27
2023-04-20T22:55:34.127Z,24.42
2023-04-20T22:58:00.891Z,22.33
2023-04-20T23:00:27.744Z,23.00
2023-04-20T23:02:54.992Z,21.75
2023-04-20T23:05:22.231Z,21.17
2023-04-20T23:07:49.295Z,22.00
2023-04-20T23:10:16.534Z,20.08
2023-04-20T23:12:44.583Z,20.00
2023-04-20T23:15:12.034Z,23.10
2023-04-20T23:17:39.457Z,22.60
2023-04-20T23:20:13.820Z,21.77
2023-04-20T23:22:40.896Z,21.25
2023-04-20T23:25:09.553Z,21.00
2023-04-20T23:27:36.619Z,19.42
2023-04-20T23:30:04.130Z,21.23
2023-04-20T23:32:31.395Z,21.00
2023-04-20T23:34:58.205Z,21.02
2023-04-20T23:37:25.353Z,21.60
2023-04-20T23:39:52.295Z,20.90
2023-04-20T23:42:19.256Z,20.38
2023-04-20T23:44:46.075Z,19.58
2023-04-20T23:47:12.937Z,20.73
2023-04-20T23:49:39.791Z,20.60
2023-04-20T23:52:06.625Z,17.88
2023-04-20T23:54:33.590Z,18.15
2023-04-20T23:57:00.673Z,18.40
2023-04-20T23:59:27.534Z,17.08
